sensor_id;sensor_type;location;lat;lon;timestamp;pressure;altitude;pressure_sealevel;temperature;humidity
62789;BME280;66401;42.016;21.454;2023-12-14T00:02:24;97422.09;;;4.60;100.00
62789;BME280;66401;42.016;21.454;2023-12-14T00:04:49;97433.75;;;4.71;100.00
62789;BME280;66401;42.016;21.454;2023-12-14T00:07:14;97408.50;;;4.67;100.00
62789;BME280;66401;42.016;21.454;2023-12-14T00:09:41;97435.72;;;4.69;100.00
62789;BME280;66401;42.016;21.454;2023-12-14T00:12:07;97423.56;;;4.78;100.00
62789;BME280;66401;42.016;21.454;2023-12-14T00:14:32;97434.91;;;4.69;100.00
62789;BME280;66401;42.016;21.454;2023-12-14T00:16:58;97443.03;;;4.80;100.00
62789;BME280;66401;42.016;21.454;2023-12-14T00:19:24;97425.25;;;4.85;100.00
62789;BME280;66401;42.016;21.454;2023-12-14T00:21:50;97428.81;;;4.84;100.00
62789;BME280;66401;42.016;21.454;2023-12-14T00:24:15;97452.66;;;4.86;100.00
62789;BME280;66401;42.016;21.454;2023-12-14T00:26:41;97445.19;;;4.92;100.00
62789;BME280;66401;42.016;21.454;2023-12-14T00:29:06;97455.19;;;4.95;100.00
62789;BME280;66401;42.016;21.454;2023-12-14T00:31:32;97409.13;;;4.69;100.00
62789;BME280;66401;42.016;21.454;2023-12-14T00:33:57;97432.78;;;4.72;100.00
62789;BME280;66401;42.016;21.454;2023-12-14T00:36:23;97434.31;;;4.81;100.00
62789;BME280;66401;42.016;21.454;2023-12-14T00:38:48;97428.81;;;4.84;100.00
62789;BME280;66401;42.016;21.454;2023-12-14T00:41:16;97432.34;;;4.69;100.00
62789;BME280;66401;42.016;21.454;2023-12-14T00:43:41;97424.84;;;4.59;100.00
62789;BME280;66401;42.016;21.454;2023-12-14T00:46:07;97430.63;;;4.61;100.00
62789;BME280;66401;42.016;21.454;2023-12-14T00:48:33;97426.81;;;4.57;100.00
62789;BME280;66401;42.016;21.454;2023-12-14T00:50:58;97430.63;;;4.61;100.00
62789;BME280;66401;42.016;21.454;2023-12-14T00:53:24;97435.16;;;4.59;100.00
62789;BME280;66401;42.016;21.454;2023-12-14T00:55:49;97427.97;;;4.69;100.00
62789;BME280;66401;42.016;21.454;2023-12-14T00:58:15;97452.78;;;4.70;100.00
62789;BME280;66401;42.016;21.454;2023-12-14T01:00:41;97422.56;;;4.64;100.00
62789;BME280;66401;42.016;21.454;2023-12-14T01:03:06;97438.31;;;4.69;100.00
62789;BME280;66401;42.016;21.454;2023-12-14T01:05:32;97439.16;;;4.62;100.00
62789;BME280;66401;42.016;21.454;2023-12-14T01:07:57;97441.97;;;4.52;100.00
62789;BME280;66401;42.016;21.454;2023-12-14T01:10:23;97433.00;;;4.48;100.00
62789;BME280;66401;42.016;21.454;2023-12-14T01:12:48;97441.25;;;4.43;100.00
62789;BME280;66401;42.016;21.454;2023-12-14T01:15:14;97429.25;;;4.36;100.00
62789;BME280;66401;42.016;21.454;2023-12-14T01:17:39;97432.78;;;4.35;100.00
62789;BME280;66401;42.016;21.454;2023-12-14T01:20:08;97423.03;;;4.22;100.00
62789;BME280;66401;42.016;21.454;2023-12-14T01:22:34;97425.78;;;4.20;100.00
62789;BME280;66401;42.016;21.454;2023-12-14T01:24:59;97451.06;;;4.25;100.00
62789;BME280;66401;42.016;21.454;2023-12-14T01:27:25;97414.44;;;4.29;100.00
62789;BME280;66401;42.016;21.454;2023-12-14T01:29:50;97426.38;;;4.30;100.00
62789;BME280;66401;42.016;21.454;2023-12-14T01:32:16;97432.78;;;4.35;100.00
62789;BME280;66401;42.016;21.454;2023-12-14T01:34:41;97419.38;;;4.39;100.00
62789;BME280;66401;42.016;21.454;2023-12-14T01:37:07;97428.34;;;4.43;100.00
62789;BME280;66401;42.016;21.454;2023-12-14T01:39:32;97436.66;;;4.53;100.00
62789;BME280;66401;42.016;21.454;2023-12-14T01:41:58;97419.75;;;4.51;100.00
62789;BME280;66401;42.016;21.454;2023-12-14T01:44:24;97389.03;;;4.26;100.00
62789;BME280;66401;42.016;21.454;2023-12-14T01:46:49;97392.78;;;4.39;99.96
62789;BME280;66401;42.016;21.454;2023-12-14T01:49:15;97408.81;;;4.49;100.00
62789;BME280;66401;42.016;21.454;2023-12-14T01:51:41;97413.97;;;4.49;100.00
62789;BME280;66401;42.016;21.454;2023-12-14T01:54:06;97410.59;;;4.48;100.00
62789;BME280;66401;42.016;21.454;2023-12-14T01:56:31;97412.63;;;4.38;100.00
62789;BME280;66401;42.016;21.454;2023-12-14T01:58:57;97381.97;;;4.20;100.00
62789;BME280;66401;42.016;21.454;2023-12-14T02:01:28;97403.16;;;4.30;100.00
62789;BME280;66401;42.016;21.454;2023-12-14T02:04:00;97417.31;;;4.35;100.00
62789;BME280;66401;42.016;21.454;2023-12-14T02:06:26;97415.25;;;4.30;100.00
62789;BME280;66401;42.016;21.454;2023-12-14T02:08:52;97409.34;;;4.21;100.00
62789;BME280;66401;42.016;21.454;2023-12-14T02:11:18;97406.78;;;4.21;100.00
62789;BME280;66401;42.016;21.454;2023-12-14T02:13:43;97393.63;;;4.16;100.00
62789;BME280;66401;42.016;21.454;2023-12-14T02:16:09;97387.91;;;4.06;100.00
62789;BME280;66401;42.016;21.454;2023-12-14T02:18:34;97374.72;;;4.01;100.00
62789;BME280;66401;42.016;21.454;2023-12-14T02:21:00;97390.53;;;3.98;100.00
62789;BME280;66401;42.016;21.454;2023-12-14T02:23:25;97379.97;;;3.85;100.00
62789;BME280;66401;42.016;21.454;2023-12-14T02:25:51;97386.72;;;3.86;100.00
62789;BME280;66401;42.016;21.454;2023-12-14T02:28:17;97394.13;;;3.89;100.00
62789;BME280;66401;42.016;21.454;2023-12-14T02:30:42;97377.97;;;3.95;100.00
62789;BME280;66401;42.016;21.454;2023-12-14T02:33:08;97388.91;;;3.97;100.00
62789;BME280;66401;42.016;21.454;2023-12-14T02:35:33;97392.75;;;4.01;100.00
62789;BME280;66401;42.016;21.454;2023-12-14T02:37:59;97361.06;;;3.92;100.00
62789;BME280;66401;42.016;21.454;2023-12-14T02:40:24;97391.09;;;4.08;100.00
62789;BME280;66401;42.016;21.454;2023-12-14T02:42:49;97383.00;;;4.11;100.00
62789;BME280;66401;42.016;21.454;2023-12-14T02:45:15;97395.09;;;4.11;99.84
62789;BME280;66401;42.016;21.454;2023-12-14T02:47:41;97388.78;;;4.13;100.00
62789;BME280;66401;42.016;21.454;2023-12-14T02:50:07;97362.50;;;3.95;100.00
62789;BME280;66401;42.016;21.454;2023-12-14T02:52:32;97392.97;;;4.14;100.00
62789;BME280;66401;42.016;21.454;2023-12-14T02:54:58;97382.38;;;4.09;100.00
62789;BME280;66401;42.016;21.454;2023-12-14T02:57:23;97386.56;;;4.10;100.00
62789;BME280;66401;42.016;21.454;2023-12-14T02:59:49;97341.50;;;4.06;100.00
62789;BME280;66401;42.016;21.454;2023-12-14T03:02:15;97372.19;;;4.16;100.00
62789;BME280;66401;42.016;21.454;2023-12-14T03:04:40;97373.31;;;4.13;100.00
62789;BME280;66401;42.016;21.454;2023-12-14T03:07:06;97391.66;;;4.18;100.00
62789;BME280;66401;42.016;21.454;2023-12-14T03:09:32;97377.44;;;4.22;100.00
62789;BME280;66401;42.016;21.454;2023-12-14T03:11:59;97371.50;;;4.22;100.00
62789;BME280;66401;42.016;21.454;2023-12-14T03:14:25;97364.50;;;4.30;100.00
62789;BME280;66401;42.016;21.454;2023-12-14T03:16:50;97334.72;;;4.05;100.00
62789;BME280;66401;42.016;21.454;2023-12-14T03:19:16;97378.72;;;4.26;100.00
62789;BME280;66401;42.016;21.454;2023-12-14T03:21:42;97352.66;;;4.21;100.00
62789;BME280;66401;42.016;21.454;2023-12-14T03:24:08;97355.69;;;4.25;100.00
62789;BME280;66401;42.016;21.454;2023-12-14T03:26:34;97351.25;;;4.34;100.00
62789;BME280;66401;42.016;21.454;2023-12-14T03:29:00;97338.72;;;4.30;100.00
62789;BME280;66401;42.016;21.454;2023-12-14T03:31:25;97334.53;;;4.29;100.00
62789;BME280;66401;42.016;21.454;2023-12-14T03:33:51;97327.84;;;4.20;100.00
62789;BME280;66401;42.016;21.454;2023-12-14T03:36:16;97327.16;;;4.26;100.00
62789;BME280;66401;42.016;21.454;2023-12-14T03:38:42;97345.59;;;4.38;100.00
62789;BME280;66401;42.016;21.454;2023-12-14T03:41:07;97336.25;;;4.37;100.00
62789;BME280;66401;42.016;21.454;2023-12-14T03:43:33;97346.28;;;4.32;100.00
62789;BME280;66401;42.016;21.454;2023-12-14T03:45:58;97350.75;;;4.38;100.00
62789;BME280;66401;42.016;21.454;2023-12-14T03:48:24;97331.81;;;4.46;100.00
62789;BME280;66401;42.016;21.454;2023-12-14T03:50:49;97331.59;;;4.32;100.00
62789;BME280;66401;42.016;21.454;2023-12-14T03:53:17;97315.16;;;4.34;100.00
62789;BME280;66401;42.016;21.454;2023-12-14T03:55:43;97349.88;;;4.46;100.00
62789;BME280;66401;42.016;21.454;2023-12-14T03:58:08;97337.97;;;4.45;100.00
62789;BME280;66401;42.016;21.454;2023-12-14T04:00:34;97354.59;;;4.57;100.00
62789;BME280;66401;42.016;21.454;2023-12-14T04:02:59;97344.97;;;4.51;100.00
62789;BME280;66401;42.016;21.454;2023-12-14T04:05:25;97356.81;;;4.60;100.00
62789;BME280;66401;42.016;21.454;2023-12-14T04:07:50;97369.72;;;4.60;100.00
62789;BME280;66401;42.016;21.454;2023-12-14T04:10:16;97371.31;;;4.61;100.00
62789;BME280;66401;42.016;21.454;2023-12-14T04:12:41;97348.47;;;4.58;100.00
62789;BME280;66401;42.016;21.454;2023-12-14T04:15:09;97355.28;;;4.51;100.00
62789;BME280;66401;42.016;21.454;2023-12-14T04:17:34;97345.97;;;4.50;100.00
62789;BME280;66401;42.016;21.454;2023-12-14T04:20:00;97345.44;;;4.54;100.00
62789;BME280;66401;42.016;21.454;2023-12-14T04:22:27;97361.59;;;4.48;100.00
62789;BME280;66401;42.016;21.454;2023-12-14T04:24:52;97356.28;;;4.50;100.00
62789;BME280;66401;42.016;21.454;2023-12-14T04:27:18;97311.53;;;4.43;100.00
62789;BME280;66401;42.016;21.454;2023-12-14T04:29:43;97366.16;;;4.61;100.00
62789;BME280;66401;42.016;21.454;2023-12-14T04:32:09;97341.78;;;4.49;100.00
62789;BME280;66401;42.016;21.454;2023-12-14T04:34:35;97370.06;;;4.57;100.00
62789;BME280;66401;42.016;21.454;2023-12-14T04:37:00;97357.25;;;4.49;100.00
62789;BME280;66401;42.016;21.454;2023-12-14T04:39:26;97352.22;;;4.32;100.00
62789;BME280;66401;42.016;21.454;2023-12-14T04:41:52;97370.03;;;4.42;100.00
62789;BME280;66401;42.016;21.454;2023-12-14T04:44:18;97366.03;;;4.40;100.00
62789;BME280;66401;42.016;21.454;2023-12-14T04:46:44;97352.22;;;4.32;100.00
62789;BME280;66401;42.016;21.454;2023-12-14T04:49:09;97369.16;;;4.50;100.00
62789;BME280;66401;42.016;21.454;2023-12-14T04:51:35;97367.44;;;4.42;100.00
62789;BME280;66401;42.016;21.454;2023-12-14T04:54:00;97371.81;;;4.42;100.00
62789;BME280;66401;42.016;21.454;2023-12-14T04:56:26;97362.28;;;4.42;100.00
62789;BME280;66401;42.016;21.454;2023-12-14T04:58:51;97370.25;;;4.55;100.00
62789;BME280;66401;42.016;21.454;2023-12-14T05:01:17;97350.19;;;4.43;100.00
62789;BME280;66401;42.016;21.454;2023-12-14T05:03:43;97372.84;;;4.70;100.00
62789;BME280;66401;42.016;21.454;2023-12-14T05:06:09;97363.84;;;4.66;100.00
62789;BME280;66401;42.016;21.454;2023-12-14T05:08:34;97372.84;;;4.55;100.00
62789;BME280;66401;42.016;21.454;2023-12-14T05:11:00;97383.88;;;4.64;100.00
62789;BME280;66401;42.016;21.454;2023-12-14T05:13:25;97390.34;;;4.60;100.00
62789;BME280;66401;42.016;21.454;2023-12-14T05:15:51;97388.75;;;4.59;100.00
62789;BME280;66401;42.016;21.454;2023-12-14T05:18:18;97388.75;;;4.59;100.00
62789;BME280;66401;42.016;21.454;2023-12-14T05:20:43;97411.50;;;4.55;100.00
62789;BME280;66401;42.016;21.454;2023-12-14T05:23:11;97404.41;;;4.57;100.00
62789;BME280;66401;42.016;21.454;2023-12-14T05:25:36;97386.78;;;4.61;100.00
62789;BME280;66401;42.016;21.454;2023-12-14T05:28:02;97383.22;;;4.62;100.00
62789;BME280;66401;42.016;21.454;2023-12-14T05:30:27;97387.75;;;4.60;100.00
62789;BME280;66401;42.016;21.454;2023-12-14T05:32:59;97375.59;;;4.54;100.00
62789;BME280;66401;42.016;21.454;2023-12-14T05:35:24;97374.69;;;4.47;100.00
62789;BME280;66401;42.016;21.454;2023-12-14T05:37:51;97389.78;;;4.50;100.00
62789;BME280;66401;42.016;21.454;2023-12-14T05:40:16;97414.03;;;4.64;100.00
62789;BME280;66401;42.016;21.454;2023-12-14T05:42:42;97367.91;;;4.46;100.00
62789;BME280;66401;42.016;21.454;2023-12-14T05:45:07;97387.06;;;4.66;100.00
62789;BME280;66401;42.016;21.454;2023-12-14T05:47:33;97382.53;;;4.68;100.00
62789;BME280;66401;42.016;21.454;2023-12-14T05:50:00;97391.50;;;4.72;100.00
62789;BME280;66401;42.016;21.454;2023-12-14T05:52:26;97400.34;;;4.78;100.00
62789;BME280;66401;42.016;21.454;2023-12-14T05:54:51;97400.44;;;4.84;100.00
62789;BME280;66401;42.016;21.454;2023-12-14T05:57:17;97396.81;;;4.94;100.00
62789;BME280;66401;42.016;21.454;2023-12-14T05:59:43;97374.00;;;4.82;100.00
62789;BME280;66401;42.016;21.454;2023-12-14T06:02:08;97387.28;;;4.94;100.00
62789;BME280;66401;42.016;21.454;2023-12-14T06:04:34;97380.41;;;4.86;100.00
62789;BME280;66401;42.016;21.454;2023-12-14T06:06:59;97379.72;;;4.93;100.00
62789;BME280;66401;42.016;21.454;2023-12-14T06:09:25;97408.00;;;5.01;100.00
62789;BME280;66401;42.016;21.454;2023-12-14T06:12:01;97400.91;;;5.03;100.00
62789;BME280;66401;42.016;21.454;2023-12-14T06:14:28;97419.22;;;5.08;100.00
62789;BME280;66401;42.016;21.454;2023-12-14T06:16:53;97430.00;;;5.11;100.00
62789;BME280;66401;42.016;21.454;2023-12-14T06:19:19;97421.44;;;5.11;100.00
62789;BME280;66401;42.016;21.454;2023-12-14T06:21:44;97411.75;;;5.13;100.00
62789;BME280;66401;42.016;21.454;2023-12-14T06:24:10;97417.25;;;5.10;100.00
62789;BME280;66401;42.016;21.454;2023-12-14T06:26:44;97425.66;;;5.12;100.00
62789;BME280;66401;42.016;21.454;2023-12-14T06:29:11;97431.25;;;5.15;100.00
62789;BME280;66401;42.016;21.454;2023-12-14T06:31:37;97421.03;;;5.22;100.00
62789;BME280;66401;42.016;21.454;2023-12-14T06:34:03;97415.59;;;5.17;100.00
62789;BME280;66401;42.016;21.454;2023-12-14T06:36:33;97438.13;;;5.23;100.00
62789;BME280;66401;42.016;21.454;2023-12-14T06:38:59;97440.69;;;5.23;100.00
62789;BME280;66401;42.016;21.454;2023-12-14T06:41:26;97437.13;;;5.24;100.00
62789;BME280;66401;42.016;21.454;2023-12-14T06:43:53;97448.06;;;5.26;100.00
62789;BME280;66401;42.016;21.454;2023-12-14T06:46:18;97425.47;;;5.28;100.00
62789;BME280;66401;42.016;21.454;2023-12-14T06:48:45;97433.22;;;5.43;100.00
62789;BME280;66401;42.016;21.454;2023-12-14T06:51:10;97430.97;;;5.55;100.00
62789;BME280;66401;42.016;21.454;2023-12-14T06:53:38;97433.00;;;5.59;100.00
62789;BME280;66401;42.016;21.454;2023-12-14T06:56:04;97447.97;;;5.64;100.00
62789;BME280;66401;42.016;21.454;2023-12-14T06:58:31;97430.78;;;5.71;100.00
62789;BME280;66401;42.016;21.454;2023-12-14T07:00:57;97422.94;;;5.64;100.00
62789;BME280;66401;42.016;21.454;2023-12-14T07:03:22;97433.50;;;5.84;100.00
62789;BME280;66401;42.016;21.454;2023-12-14T07:05:52;97451.34;;;5.94;100.00
62789;BME280;66401;42.016;21.454;2023-12-14T07:08:17;97422.13;;;6.15;100.00
62789;BME280;66401;42.016;21.454;2023-12-14T07:10:43;97433.81;;;6.11;99.22
62789;BME280;66401;42.016;21.454;2023-12-14T07:13:08;97432.72;;;6.41;98.04
62789;BME280;66401;42.016;21.454;2023-12-14T07:15:34;97450.06;;;6.69;97.08
62789;BME280;66401;42.016;21.454;2023-12-14T07:17:59;97453.84;;;6.94;96.04
62789;BME280;66401;42.016;21.454;2023-12-14T07:20:25;97443.59;;;7.07;95.59
62789;BME280;66401;42.016;21.454;2023-12-14T07:22:50;97449.03;;;6.91;96.50
62789;BME280;66401;42.016;21.454;2023-12-14T07:25:16;97454.47;;;6.96;96.27
62789;BME280;66401;42.016;21.454;2023-12-14T07:27:41;97460.47;;;7.03;96.08
62789;BME280;66401;42.016;21.454;2023-12-14T07:30:09;97467.69;;;7.08;95.40
62789;BME280;66401;42.016;21.454;2023-12-14T07:32:35;97458.69;;;6.76;97.07
62789;BME280;66401;42.016;21.454;2023-12-14T07:35:00;97415.25;;;6.71;97.13
62789;BME280;66401;42.016;21.454;2023-12-14T07:37:26;97468.63;;;7.00;97.44
62789;BME280;66401;42.016;21.454;2023-12-14T07:39:52;97454.63;;;6.95;97.63
62789;BME280;66401;42.016;21.454;2023-12-14T07:42:17;97451.44;;;6.93;96.99
62789;BME280;66401;42.016;21.454;2023-12-14T07:44:45;97452.34;;;7.06;96.25
62789;BME280;66401;42.016;21.454;2023-12-14T07:47:11;97456.72;;;7.06;97.07
62789;BME280;66401;42.016;21.454;2023-12-14T07:49:36;97466.34;;;7.18;97.00
62789;BME280;66401;42.016;21.454;2023-12-14T07:52:02;97458.44;;;7.27;96.55
62789;BME280;66401;42.016;21.454;2023-12-14T07:54:28;97460.03;;;7.28;96.95
62789;BME280;66401;42.016;21.454;2023-12-14T07:56:54;97447.94;;;7.35;96.56
62789;BME280;66401;42.016;21.454;2023-12-14T07:59:19;97450.81;;;7.18;97.21
62789;BME280;66401;42.016;21.454;2023-12-14T08:01:46;97445.41;;;7.48;97.03
62789;BME280;66401;42.016;21.454;2023-12-14T08:04:11;97463.84;;;7.66;96.48
62789;BME280;66401;42.016;21.454;2023-12-14T08:06:37;97455.13;;;7.81;96.21
62789;BME280;66401;42.016;21.454;2023-12-14T08:09:05;97438.34;;;7.77;96.43
62789;BME280;66401;42.016;21.454;2023-12-14T08:11:31;97452.41;;;8.02;95.21
62789;BME280;66401;42.016;21.454;2023-12-14T08:13:57;97457.16;;;7.92;95.66
62789;BME280;66401;42.016;21.454;2023-12-14T08:16:23;97467.16;;;7.95;95.15
62789;BME280;66401;42.016;21.454;2023-12-14T08:18:49;97459.13;;;7.90;95.44
62789;BME280;66401;42.016;21.454;2023-12-14T08:21:15;97441.63;;;7.92;94.87
62789;BME280;66401;42.016;21.454;2023-12-14T08:23:41;97441.66;;;8.05;93.93
62789;BME280;66401;42.016;21.454;2023-12-14T08:26:07;97427.66;;;7.99;93.38
62789;BME280;66401;42.016;21.454;2023-12-14T08:28:33;97446.47;;;8.15;93.57
62789;BME280;66401;42.016;21.454;2023-12-14T08:30:59;97456.44;;;8.11;95.27
62789;BME280;66401;42.016;21.454;2023-12-14T08:33:30;97443.69;;;8.29;93.30
62789;BME280;66401;42.016;21.454;2023-12-14T08:35:57;97414.19;;;8.37;91.03
62789;BME280;66401;42.016;21.454;2023-12-14T08:38:23;97421.19;;;8.37;89.48
62789;BME280;66401;42.016;21.454;2023-12-14T08:40:48;97428.09;;;8.16;90.02
62789;BME280;66401;42.016;21.454;2023-12-14T08:43:14;97426.97;;;8.39;90.30
62789;BME280;66401;42.016;21.454;2023-12-14T08:45:40;97438.56;;;8.43;90.22
62789;BME280;66401;42.016;21.454;2023-12-14T08:48:05;97445.75;;;8.54;89.28
62789;BME280;66401;42.016;21.454;2023-12-14T08:50:31;97436.97;;;8.42;88.98
62789;BME280;66401;42.016;21.454;2023-12-14T08:52:56;97430.59;;;8.51;89.25
62789;BME280;66401;42.016;21.454;2023-12-14T08:55:24;97452.34;;;8.83;90.05
62789;BME280;66401;42.016;21.454;2023-12-14T08:57:50;97457.91;;;9.13;89.32
62789;BME280;66401;42.016;21.454;2023-12-14T09:00:16;97440.75;;;9.05;88.43
62789;BME280;66401;42.016;21.454;2023-12-14T09:02:43;97446.84;;;9.44;88.92
62789;BME280;66401;42.016;21.454;2023-12-14T09:05:09;97452.63;;;9.66;86.75
62789;BME280;66401;42.016;21.454;2023-12-14T09:07:34;97462.63;;;10.14;86.50
62789;BME280;66401;42.016;21.454;2023-12-14T09:10:00;97459.31;;;10.31;83.34
62789;BME280;66401;42.016;21.454;2023-12-14T09:12:25;97454.97;;;10.25;85.05
62789;BME280;66401;42.016;21.454;2023-12-14T09:14:51;97467.41;;;10.23;84.81
62789;BME280;66401;42.016;21.454;2023-12-14T09:17:16;97465.47;;;9.99;85.83
62789;BME280;66401;42.016;21.454;2023-12-14T09:19:42;97460.53;;;9.84;87.47
62789;BME280;66401;42.016;21.454;2023-12-14T09:22:07;97469.75;;;9.80;87.43
62789;BME280;66401;42.016;21.454;2023-12-14T09:24:33;97450.16;;;9.78;88.53
62789;BME280;66401;42.016;21.454;2023-12-14T09:26:58;97445.00;;;10.09;87.83
62789;BME280;66401;42.016;21.454;2023-12-14T09:29:24;97463.44;;;10.08;87.75
62789;BME280;66401;42.016;21.454;2023-12-14T09:31:49;97444.00;;;10.48;86.50
62789;BME280;66401;42.016;21.454;2023-12-14T09:34:15;97452.31;;;10.88;84.04
62789;BME280;66401;42.016;21.454;2023-12-14T09:36:41;97442.63;;;12.24;79.83
62789;BME280;66401;42.016;21.454;2023-12-14T09:39:07;97440.88;;;12.48;75.51
62789;BME280;66401;42.016;21.454;2023-12-14T09:41:36;97431.53;;;13.92;72.69
62789;BME280;66401;42.016;21.454;2023-12-14T09:44:04;97429.06;;;14.31;68.19
62789;BME280;66401;42.016;21.454;2023-12-14T09:46:33;97437.31;;;13.94;68.19
62789;BME280;66401;42.016;21.454;2023-12-14T09:49:00;97426.16;;;13.87;68.79
62789;BME280;66401;42.016;21.454;2023-12-14T09:51:27;97429.75;;;15.44;65.72
62789;BME280;66401;42.016;21.454;2023-12-14T09:53:52;97425.22;;;15.17;65.09
62789;BME280;66401;42.016;21.454;2023-12-14T09:56:24;97426.25;;;15.55;63.45
62789;BME280;66401;42.016;21.454;2023-12-14T09:58:50;97422.09;;;15.81;61.59
62789;BME280;66401;42.016;21.454;2023-12-14T10:01:27;97440.22;;;15.61;61.57
62789;BME280;66401;42.016;21.454;2023-12-14T10:04:12;97421.97;;;17.16;57.40
62789;BME280;66401;42.016;21.454;2023-12-14T10:06:39;97425.56;;;19.42;50.08
62789;BME280;66401;42.016;21.454;2023-12-14T10:09:05;97428.28;;;18.91;50.14
62789;BME280;66401;42.016;21.454;2023-12-14T10:11:44;97430.19;;;16.55;56.74
62789;BME280;66401;42.016;21.454;2023-12-14T10:14:30;97441.94;;;15.94;59.80
62789;BME280;66401;42.016;21.454;2023-12-14T10:16:55;97432.63;;;16.94;57.34
62789;BME280;66401;42.016;21.454;2023-12-14T10:19:21;97413.97;;;16.96;56.21
62789;BME280;66401;42.016;21.454;2023-12-14T10:21:48;97432.56;;;15.59;59.97
62789;BME280;66401;42.016;21.454;2023-12-14T10:24:14;97435.72;;;15.17;62.71
62789;BME280;66401;42.016;21.454;2023-12-14T10:26:39;97432.63;;;14.25;65.35
62789;BME280;66401;42.016;21.454;2023-12-14T10:29:06;97445.19;;;14.68;66.62
62789;BME280;66401;42.016;21.454;2023-12-14T10:31:32;97442.31;;;15.42;64.10
62789;BME280;66401;42.016;21.454;2023-12-14T10:34:03;97437.69;;;15.10;64.18
62789;BME280;66401;42.016;21.454;2023-12-14T10:36:29;97432.50;;;14.77;65.17
62789;BME280;66401;42.016;21.454;2023-12-14T10:38:57;97429.81;;;14.43;66.81
62789;BME280;66401;42.016;21.454;2023-12-14T10:41:23;97423.00;;;13.85;68.57
62789;BME280;66401;42.016;21.454;2023-12-14T10:43:50;97444.97;;;13.84;69.21
62789;BME280;66401;42.016;21.454;2023-12-14T10:46:19;97443.53;;;13.65;71.68
62789;BME280;66401;42.016;21.454;2023-12-14T10:48:47;97429.00;;;13.45;71.66
62789;BME280;66401;42.016;21.454;2023-12-14T10:51:14;97442.56;;;13.31;73.08
62789;BME280;66401;42.016;21.454;2023-12-14T10:53:40;97444.72;;;13.45;72.63
62789;BME280;66401;42.016;21.454;2023-12-14T10:56:10;97444.81;;;13.62;73.05
62789;BME280;66401;42.016;21.454;2023-12-14T10:58:56;97456.88;;;13.40;72.29
62789;BME280;66401;42.016;21.454;2023-12-14T11:01:23;97462.44;;;12.97;74.40
62789;BME280;66401;42.016;21.454;2023-12-14T11:03:54;97463.16;;;12.50;77.74
62789;BME280;66401;42.016;21.454;2023-12-14T11:06:29;97458.13;;;12.07;79.45
62789;BME280;66401;42.016;21.454;2023-12-14T11:08:58;97445.53;;;12.16;78.92
62789;BME280;66401;42.016;21.454;2023-12-14T11:11:28;97441.44;;;12.08;78.69
62789;BME280;66401;42.016;21.454;2023-12-14T11:13:54;97463.88;;;12.27;79.09
62789;BME280;66401;42.016;21.454;2023-12-14T11:16:24;97475.78;;;12.05;80.72
62789;BME280;66401;42.016;21.454;2023-12-14T11:19:24;97478.66;;;11.85;82.67
62789;BME280;66401;42.016;21.454;2023-12-14T11:22:09;97482.75;;;11.74;83.01
62789;BME280;66401;42.016;21.454;2023-12-14T11:24:36;97470.66;;;11.62;83.04
62789;BME280;66401;42.016;21.454;2023-12-14T11:27:08;97475.44;;;11.65;83.40
62789;BME280;66401;42.016;21.454;2023-12-14T11:29:37;97470.66;;;11.62;84.09
62789;BME280;66401;42.016;21.454;2023-12-14T11:32:05;97448.63;;;11.58;82.56
62789;BME280;66401;42.016;21.454;2023-12-14T11:34:31;97468.63;;;11.64;82.56
62789;BME280;66401;42.016;21.454;2023-12-14T11:36:56;97455.09;;;11.55;83.13
62789;BME280;66401;42.016;21.454;2023-12-14T11:39:22;97428.22;;;11.55;84.63
62789;BME280;66401;42.016;21.454;2023-12-14T11:42:04;97443.91;;;11.48;83.79
62789;BME280;66401;42.016;21.454;2023-12-14T11:44:32;97463.97;;;11.47;83.60
62789;BME280;66401;42.016;21.454;2023-12-14T11:46:57;97458.97;;;11.28;84.65
62789;BME280;66401;42.016;21.454;2023-12-14T11:49:26;97443.47;;;11.14;85.81
62789;BME280;66401;42.016;21.454;2023-12-14T11:51:54;97466.06;;;11.21;85.45
62789;BME280;66401;42.016;21.454;2023-12-14T11:54:20;97467.72;;;11.15;86.32
62789;BME280;66401;42.016;21.454;2023-12-14T11:56:47;97442.81;;;11.01;86.53
62789;BME280;66401;42.016;21.454;2023-12-14T11:59:14;97456.31;;;11.09;86.77
62789;BME280;66401;42.016;21.454;2023-12-14T12:01:53;97439.31;;;11.07;86.80
62789;BME280;66401;42.016;21.454;2023-12-14T12:04:19;97454.34;;;11.11;86.74
62789;BME280;66401;42.016;21.454;2023-12-14T12:06:45;97445.50;;;11.12;87.35
62789;BME280;66401;42.016;21.454;2023-12-14T12:09:10;97453.75;;;11.28;86.79
62789;BME280;66401;42.016;21.454;2023-12-14T12:11:37;97464.47;;;11.38;86.48
62789;BME280;66401;42.016;21.454;2023-12-14T12:14:02;97463.09;;;11.35;86.33
62789;BME280;66401;42.016;21.454;2023-12-14T12:16:30;97473.19;;;11.32;85.69
62789;BME280;66401;42.016;21.454;2023-12-14T12:18:56;97483.44;;;11.27;85.79
62789;BME280;66401;42.016;21.454;2023-12-14T12:21:22;97483.88;;;11.24;85.69
62789;BME280;66401;42.016;21.454;2023-12-14T12:23:47;97491.84;;;11.29;85.08
62789;BME280;66401;42.016;21.454;2023-12-14T12:26:13;97487.66;;;11.28;85.99
62789;BME280;66401;42.016;21.454;2023-12-14T12:28:38;97481.09;;;11.18;85.63
62789;BME280;66401;42.016;21.454;2023-12-14T12:31:04;97479.78;;;11.09;85.96
62789;BME280;66401;42.016;21.454;2023-12-14T12:33:29;97487.59;;;11.09;86.03
62789;BME280;66401;42.016;21.454;2023-12-14T12:35:55;97471.97;;;11.09;85.74
62789;BME280;66401;42.016;21.454;2023-12-14T12:38:20;97458.75;;;11.11;85.92
62789;BME280;66401;42.016;21.454;2023-12-14T12:40:46;97472.66;;;11.23;85.46
62789;BME280;66401;42.016;21.454;2023-12-14T12:43:13;97472.97;;;11.08;87.02
62789;BME280;66401;42.016;21.454;2023-12-14T12:45:39;97467.63;;;11.03;86.28
62789;BME280;66401;42.016;21.454;2023-12-14T12:48:05;97443.47;;;10.89;86.80
62789;BME280;66401;42.016;21.454;2023-12-14T12:50:32;97471.47;;;11.01;86.53